Current Conditions
Rain
Conditions



Pressure
1001.92 (hPa) - 29.59 (inHG)
Visibility

7.0 (km) - 4.3 (miles)
Temperature
6  °C
Temperature
4  °C
Dewpoint
87  %
 Humidity
Wind Speed
10  km/h
5  kts
6  mph
2.7  m/s
Wind Direction
N
45°
E
90°
135°
S
180°
225°
W
270°
315°
 320°

North West
Airport Data
LIPI
Rivolto Air Base
Metar :LIPI 091055Z 32005KT 7000 -RA SCT020 BKN030 06/04 Q1002 RMK OVC VIS MIN 7000 WIND THR06 01009KT WIND THR24 34007KT WHT
Fri 9th December 11:55 am
Raw Metar Info
Raw METAR is the most common format in the world for the transmission of observational weather data. It is highly standardized through the International Civil Aviation Organization (ICAO), which allows it to be understood throughout most of the world.
API Info
Data Provided by
https://www.checkwx.com/weather/LIPI

Aviation Weather providing METAR, TAF, AIRMET, SIGMET and OUTLOOK Weather Reports
© Info
CSS/SVG/PHP scripts were developed by weather34 for use in the weather34 template © 2015-2022

Guide Info provided by Metar-Wikipedia